Time;durP1;ratioP1;P1;durP2;ratioP2;P2;SDS_P1;SDS_P2;PMS_P1;PMS_P2;Temp;Humidity;BMP_temperature;BMP_pressure;BME280_temperature;BME280_humidity;BME280_pressure;Samples;Min_cycle;Max_cycle;Signal;HPM_P1;HPM_P2
2021/05/29 00:00:13;;;;;;;14.63;1.40;;;;;;;;;;4945198;29;20031;-42
2021/05/29 00:02:40;;;;;;;12.60;1.70;;;;;;;;;;4945954;29;20106;-41
2021/05/29 00:05:08;;;;;;;8.63;2.00;;;;;;;;;;4947721;29;20039;-41
2021/05/29 00:07:35;;;;;;;33.30;3.63;;;;;;;;;;4947211;29;20034;-41
2021/05/29 00:10:02;;;;;;;16.48;2.60;;;;;;;;;;4947285;29;20035;-42
2021/05/29 00:12:30;;;;;;;14.68;1.90;;;;;;;;;;4954367;28;20024;-41
2021/05/29 00:14:57;;;;;;;15.43;2.13;;;;;;;;;;4949575;29;20031;-41
2021/05/29 00:17:24;;;;;;;19.60;2.90;;;;;;;;;;4952457;28;20464;-41
2021/05/29 00:19:51;;;;;;;13.27;3.20;;;;;;;;;;4950773;29;20110;-41
2021/05/29 00:22:19;;;;;;;14.40;2.97;;;;;;;;;;4947730;28;20027;-41
2021/05/29 00:24:46;;;;;;;17.17;3.03;;;;;;;;;;4952130;29;20039;-42
2021/05/29 00:27:13;;;;;;;21.65;2.90;;;;;;;;;;4953201;28;20371;-42
2021/05/29 00:29:40;;;;;;;16.92;2.85;;;;;;;;;;4950789;29;20035;-41
2021/05/29 00:32:08;;;;;;;10.80;2.28;;;;;;;;;;4942336;29;20034;-41
2021/05/29 00:34:35;;;;;;;16.05;2.15;;;;;;;;;;4945335;29;20402;-41
2021/05/29 00:37:02;;;;;;;15.25;2.20;;;;;;;;;;4939306;29;20058;-42
2021/05/29 00:39:29;;;;;;;13.55;2.33;;;;;;;;;;4948139;29;20129;-42
2021/05/29 00:41:56;;;;;;;13.40;2.22;;;;;;;;;;4951002;29;20036;-41
2021/05/29 00:44:23;;;;;;;10.93;2.17;;;;;;;;;;4944539;28;20047;-42
2021/05/29 00:46:50;;;;;;;12.43;1.95;;;;;;;;;;4945846;28;20043;-43
2021/05/29 00:49:17;;;;;;;9.90;1.65;;;;;;;;;;4946581;29;20122;-42
2021/05/29 00:51:44;;;;;;;20.13;2.50;;;;;;;;;;4948853;29;20293;-41
2021/05/29 00:54:12;;;;;;;14.20;2.72;;;;;;;;;;4944635;28;20110;-42
2021/05/29 00:56:39;;;;;;;14.65;1.88;;;;;;;;;;4948219;28;20027;-41
2021/05/29 00:59:08;;;;;;;17.10;2.67;;;;;;;;;;4950135;28;20023;-42
2021/05/29 01:01:35;;;;;;;11.98;2.45;;;;;;;;;;4950419;29;20126;-43
2021/05/29 01:04:02;;;;;;;14.65;1.92;;;;;;;;;;4948644;29;20042;-41
2021/05/29 01:06:29;;;;;;;17.17;1.90;;;;;;;;;;4948502;29;20060;-42
2021/05/29 01:08:56;;;;;;;9.18;1.90;;;;;;;;;;4946967;29;20042;-44
2021/05/29 01:11:23;;;;;;;17.42;2.60;;;;;;;;;;4946145;29;20114;-44
2021/05/29 01:13:50;;;;;;;12.38;1.73;;;;;;;;;;4949139;29;20019;-45
2021/05/29 01:16:59;;;;;;;9.45;1.60;;;;;;;;;;4944974;28;20019;-43
2021/05/29 01:19:06;;;;;;;10.02;1.80;;;;;;;;;;4931973;29;20028;-42
2021/05/29 01:21:33;;;;;;;7.20;1.75;;;;;;;;;;4922527;29;20028;-42
2021/05/29 01:24:01;;;;;;;12.05;2.35;;;;;;;;;;4940442;28;20040;-42
2021/05/29 01:26:28;;;;;;;7.25;1.50;;;;;;;;;;4941711;28;20098;-40
2021/05/29 01:28:57;;;;;;;10.95;1.95;;;;;;;;;;4951994;28;20027;-43
2021/05/29 01:31:30;;;;;;;6.22;1.75;;;;;;;;;;4941683;29;20113;-40
2021/05/29 01:33:58;;;;;;;9.45;1.40;;;;;;;;;;4934500;29;20034;-39
2021/05/29 01:36:25;;;;;;;11.75;1.73;;;;;;;;;;4944024;29;20022;-41
2021/05/29 01:38:53;;;;;;;12.88;2.00;;;;;;;;;;4952326;29;20475;-47
2021/05/29 01:41:21;;;;;;;5.90;1.40;;;;;;;;;;4950779;29;20082;-43
2021/05/29 01:43:49;;;;;;;8.32;1.35;;;;;;;;;;4952892;28;20079;-52
2021/05/29 01:46:18;;;;;;;12.43;1.65;;;;;;;;;;4953152;29;20325;-46
2021/05/29 01:48:46;;;;;;;6.93;1.20;;;;;;;;;;4953189;29;20063;-41
2021/05/29 01:51:24;;;;;;;5.95;1.35;;;;;;;;;;4952913;29;20046;-41
2021/05/29 01:53:51;;;;;;;8.68;1.40;;;;;;;;;;4952634;29;20038;-53
2021/05/29 01:56:18;;;;;;;10.27;1.10;;;;;;;;;;4952455;29;20511;-46
2021/05/29 01:58:46;;;;;;;8.93;1.45;;;;;;;;;;4952568;29;20115;-41
2021/05/29 02:01:14;;;;;;;6.32;1.40;;;;;;;;;;4952149;29;20360;-43
2021/05/29 02:03:44;;;;;;;8.98;1.60;;;;;;;;;;4951827;29;20027;-41
2021/05/29 02:06:11;;;;;;;4.18;1.33;;;;;;;;;;4952364;29;20026;-46
2021/05/29 02:08:38;;;;;;;11.30;1.67;;;;;;;;;;4952702;29;20102;-43
2021/05/29 02:11:06;;;;;;;11.95;2.22;;;;;;;;;;4952319;29;20027;-52
2021/05/29 02:13:35;;;;;;;4.65;1.10;;;;;;;;;;4952395;29;20019;-48
2021/05/29 02:16:03;;;;;;;7.28;1.20;;;;;;;;;;4952939;29;20026;-55
2021/05/29 02:18:30;;;;;;;6.38;1.40;;;;;;;;;;4952909;29;20102;-54
2021/05/29 02:21:01;;;;;;;6.15;1.40;;;;;;;;;;4948954;28;20023;-48
2021/05/29 02:23:30;;;;;;;9.38;1.20;;;;;;;;;;4951485;28;20030;-44
2021/05/29 02:26:01;;;;;;;4.07;1.10;;;;;;;;;;4950273;29;20483;-48
2021/05/29 02:28:29;;;;;;;6.68;1.20;;;;;;;;;;4952260;28;20597;-44
2021/05/29 02:30:57;;;;;;;6.65;1.17;;;;;;;;;;4953144;29;20391;-44
2021/05/29 02:33:25;;;;;;;5.38;1.20;;;;;;;;;;4951394;28;20019;-51
2021/05/29 02:35:52;;;;;;;7.00;1.27;;;;;;;;;;4954500;29;20027;-56
2021/05/29 02:38:20;;;;;;;4.53;1.27;;;;;;;;;;4953584;29;20020;-47
2021/05/29 02:40:47;;;;;;;7.95;1.17;;;;;;;;;;4953984;29;20030;-44
2021/05/29 02:43:14;;;;;;;4.20;1.10;;;;;;;;;;4952363;28;20016;-51
2021/05/29 02:45:41;;;;;;;4.10;1.08;;;;;;;;;;4950159;28;20034;-52
2021/05/29 02:48:09;;;;;;;4.82;1.30;;;;;;;;;;4957455;29;20043;-47
2021/05/29 02:50:36;;;;;;;7.13;1.17;;;;;;;;;;4956849;29;20470;-52
2021/05/29 02:53:03;;;;;;;3.50;0.95;;;;;;;;;;4956307;29;20070;-55
2021/05/29 02:55:30;;;;;;;2.80;0.85;;;;;;;;;;4955560;29;20118;-40
2021/05/29 02:58:00;;;;;;;5.15;1.20;;;;;;;;;;4954975;29;20016;-42
2021/05/29 03:00:29;;;;;;;3.38;0.90;;;;;;;;;;4954524;29;20020;-53
2021/05/29 03:02:56;;;;;;;9.65;1.15;;;;;;;;;;4955686;29;20026;-43
2021/05/29 03:05:24;;;;;;;7.75;1.10;;;;;;;;;;4955771;29;20039;-42
2021/05/29 03:07:51;;;;;;;9.88;1.27;;;;;;;;;;4956641;29;20027;-44
2021/05/29 03:10:19;;;;;;;7.65;1.42;;;;;;;;;;4956729;29;20023;-47
2021/05/29 03:12:47;;;;;;;5.43;1.05;;;;;;;;;;4956673;29;20059;-55
2021/05/29 03:15:21;;;;;;;5.93;1.40;;;;;;;;;;4956544;29;20034;-44
2021/05/29 03:17:48;;;;;;;3.85;1.08;;;;;;;;;;4956923;29;20031;-45
2021/05/29 03:20:16;;;;;;;2.30;0.77;;;;;;;;;;4956446;29;20478;-41
2021/05/29 03:22:44;;;;;;;4.05;0.88;;;;;;;;;;4956623;29;20031;-44
2021/05/29 03:25:11;;;;;;;4.95;1.05;;;;;;;;;;4956806;29;20487;-44
2021/05/29 03:27:39;;;;;;;4.22;0.80;;;;;;;;;;4956262;29;20431;-44
2021/05/29 03:30:07;;;;;;;5.05;1.23;;;;;;;;;;4956834;29;20093;-45
2021/05/29 03:32:35;;;;;;;4.60;1.00;;;;;;;;;;4956230;29;20110;-43
2021/05/29 03:35:02;;;;;;;5.88;1.20;;;;;;;;;;4956646;29;20020;-45
2021/05/29 03:37:29;;;;;;;4.00;1.20;;;;;;;;;;4956135;29;20020;-43
2021/05/29 03:39:56;;;;;;;5.13;1.40;;;;;;;;;;4956549;29;20106;-46
2021/05/29 03:42:23;;;;;;;4.60;1.10;;;;;;;;;;4955999;29;20109;-46
2021/05/29 03:44:50;;;;;;;6.88;1.02;;;;;;;;;;4939274;29;20062;-47
2021/05/29 03:47:17;;;;;;;6.70;1.00;;;;;;;;;;4955888;29;20043;-49
2021/05/29 03:49:44;;;;;;;4.32;1.08;;;;;;;;;;4956194;29;20023;-48
2021/05/29 03:52:12;;;;;;;4.82;0.88;;;;;;;;;;4956197;29;20386;-55
2021/05/29 03:54:39;;;;;;;3.00;0.75;;;;;;;;;;4956201;29;20082;-43
2021/05/29 03:57:06;;;;;;;4.68;1.33;;;;;;;;;;4954785;28;20023;-46
2021/05/29 03:59:34;;;;;;;5.43;1.08;;;;;;;;;;4938881;29;20538;-57
2021/05/29 04:02:01;;;;;;;6.45;1.13;;;;;;;;;;4955742;29;20115;-58
2021/05/29 04:04:28;;;;;;;4.50;1.25;;;;;;;;;;4955072;28;20491;-53
2021/05/29 04:06:55;;;;;;;5.95;1.00;;;;;;;;;;4938784;29;20027;-59
2021/05/29 04:09:22;;;;;;;5.47;1.17;;;;;;;;;;4938528;29;20078;-57
2021/05/29 04:11:49;;;;;;;4.72;1.13;;;;;;;;;;4955922;29;20023;-59
2021/05/29 04:14:16;;;;;;;4.13;1.20;;;;;;;;;;4955439;29;20106;-56
2021/05/29 04:16:43;;;;;;;6.43;1.10;;;;;;;;;;4938759;29;20383;-56
2021/05/29 04:19:10;;;;;;;3.13;0.73;;;;;;;;;;4955267;29;20027;-59
2021/05/29 04:21:37;;;;;;;10.50;0.90;;;;;;;;;;4956008;29;20027;-55
2021/05/29 04:24:04;;;;;;;3.95;0.70;;;;;;;;;;4955108;29;20031;-52
2021/05/29 04:26:31;;;;;;;3.72;0.75;;;;;;;;;;4955706;28;20102;-54
2021/05/29 04:28:58;;;;;;;3.50;0.82;;;;;;;;;;4938195;29;20430;-42
2021/05/29 04:31:25;;;;;;;5.35;1.10;;;;;;;;;;4938433;29;20113;-52
2021/05/29 04:33:52;;;;;;;4.63;0.95;;;;;;;;;;4954819;29;20035;-46
2021/05/29 04:36:19;;;;;;;1.92;0.70;;;;;;;;;;4955772;29;20024;-43
2021/05/29 04:38:46;;;;;;;2.80;1.00;;;;;;;;;;4955086;29;20038;-54
2021/05/29 04:41:13;;;;;;;3.35;0.77;;;;;;;;;;4955525;29;20479;-45
2021/05/29 04:43:40;;;;;;;4.05;0.80;;;;;;;;;;4937374;29;20039;-47
2021/05/29 04:46:07;;;;;;;2.10;0.70;;;;;;;;;;4955381;29;20083;-44
2021/05/29 04:48:34;;;;;;;3.28;0.80;;;;;;;;;;4955131;29;20031;-42
2021/05/29 04:51:16;;;;;;;1.95;0.60;;;;;;;;;;4955136;29;20368;-49
2021/05/29 04:53:47;;;;;;;3.27;0.67;;;;;;;;;;4955098;29;20059;-46
2021/05/29 04:56:15;;;;;;;6.65;0.70;;;;;;;;;;4955060;29;20275;-45
2021/05/29 04:58:42;;;;;;;1.42;0.70;;;;;;;;;;4955170;29;20027;-51
2021/05/29 05:01:10;;;;;;;4.88;1.02;;;;;;;;;;4954593;29;20074;-58
2021/05/29 05:03:38;;;;;;;4.05;0.90;;;;;;;;;;4954709;29;20020;-56
2021/05/29 05:06:05;;;;;;;3.08;0.60;;;;;;;;;;4954356;29;20034;-59
2021/05/29 05:08:32;;;;;;;4.93;0.60;;;;;;;;;;4954925;28;20379;-54
2021/05/29 05:10:59;;;;;;;1.98;0.70;;;;;;;;;;4954483;29;20431;-56
2021/05/29 05:13:28;;;;;;;1.25;0.50;;;;;;;;;;4954672;29;20042;-55
2021/05/29 05:15:55;;;;;;;3.67;0.70;;;;;;;;;;4953820;29;20034;-52
2021/05/29 05:18:22;;;;;;;1.50;0.57;;;;;;;;;;4955107;29;20057;-54
2021/05/29 05:20:50;;;;;;;3.40;0.88;;;;;;;;;;4954273;29;20099;-53
2021/05/29 05:23:21;;;;;;;2.33;0.50;;;;;;;;;;4954541;29;20042;-55
2021/05/29 05:25:48;;;;;;;3.92;0.70;;;;;;;;;;4953958;29;20066;-59
2021/05/29 05:28:15;;;;;;;3.03;0.70;;;;;;;;;;4954648;29;20111;-48
2021/05/29 05:30:43;;;;;;;2.45;0.63;;;;;;;;;;4937146;29;20086;-51
2021/05/29 05:33:10;;;;;;;3.17;0.63;;;;;;;;;;4954727;29;20499;-51
2021/05/29 05:35:38;;;;;;;2.22;0.65;;;;;;;;;;4953833;29;20471;-48
2021/05/29 05:38:05;;;;;;;3.95;0.70;;;;;;;;;;4954372;29;20030;-44
2021/05/29 05:40:32;;;;;;;2.58;0.60;;;;;;;;;;4954685;29;20075;-46
2021/05/29 05:42:59;;;;;;;2.97;0.60;;;;;;;;;;4953852;29;20023;-48
2021/05/29 05:45:26;;;;;;;1.42;0.60;;;;;;;;;;4953915;29;20117;-44
2021/05/29 05:47:53;;;;;;;3.20;0.75;;;;;;;;;;4953823;29;20043;-44
2021/05/29 05:50:20;;;;;;;1.15;0.30;;;;;;;;;;4937106;29;20078;-45
2021/05/29 05:52:47;;;;;;;2.17;0.95;;;;;;;;;;4953702;29;20416;-45
2021/05/29 05:55:15;;;;;;;1.95;0.50;;;;;;;;;;4954197;29;20387;-46
2021/05/29 05:57:42;;;;;;;1.58;0.52;;;;;;;;;;4953556;29;20475;-47
2021/05/29 06:00:11;;;;;;;1.42;0.50;;;;;;;;;;4936929;29;20042;-59
2021/05/29 06:02:38;;;;;;;1.23;0.50;;;;;;;;;;4953926;29;20023;-58
2021/05/29 06:05:05;;;;;;;1.27;0.50;;;;;;;;;;4953874;29;20057;-52
2021/05/29 06:07:32;;;;;;;1.90;0.60;;;;;;;;;;4953558;29;20027;-58
2021/05/29 06:09:59;;;;;;;1.65;0.60;;;;;;;;;;4954267;29;20027;-56
2021/05/29 06:12:26;;;;;;;3.50;0.50;;;;;;;;;;4953684;29;20062;-58
2021/05/29 06:20:24;;;;;;;1.73;0.50;;;;;;;;;;4953651;29;20108;-58
2021/05/29 06:22:51;;;;;;;2.60;0.40;;;;;;;;;;4953593;29;20027;-59
2021/05/29 06:25:18;;;;;;;2.15;0.70;;;;;;;;;;4953823;29;20106;-59
2021/05/29 06:27:45;;;;;;;1.80;0.43;;;;;;;;;;4953713;28;20033;-46
2021/05/29 06:30:13;;;;;;;2.45;0.50;;;;;;;;;;4953511;29;20034;-50
2021/05/29 06:32:40;;;;;;;2.03;0.50;;;;;;;;;;4954027;29;20034;-43
2021/05/29 06:35:08;;;;;;;1.75;0.47;;;;;;;;;;4953299;29;20063;-44
2021/05/29 06:37:36;;;;;;;3.50;0.70;;;;;;;;;;4953461;29;20031;-44
2021/05/29 06:40:07;;;;;;;1.30;0.50;;;;;;;;;;4953182;29;20039;-47
2021/05/29 06:42:34;;;;;;;0.75;0.40;;;;;;;;;;4953783;29;20497;-44
2021/05/29 06:45:01;;;;;;;2.10;0.60;;;;;;;;;;4953219;28;20046;-45
2021/05/29 06:47:28;;;;;;;3.25;0.57;;;;;;;;;;4953634;29;20553;-47
2021/05/29 06:49:55;;;;;;;1.65;0.55;;;;;;;;;;4953218;29;20070;-42
2021/05/29 06:52:26;;;;;;;1.58;0.45;;;;;;;;;;4953602;29;20029;-44
2021/05/29 07:00:06;;;;;;;1.45;0.65;;;;;;;;;;4953625;29;20462;-45
2021/05/29 07:02:34;;;;;;;1.55;0.47;;;;;;;;;;4953423;29;20035;-43
2021/05/29 07:05:01;;;;;;;1.23;0.40;;;;;;;;;;4953147;29;20039;-44
2021/05/29 07:07:29;;;;;;;2.20;0.40;;;;;;;;;;4953713;29;20019;-45
2021/05/29 07:09:56;;;;;;;1.73;0.60;;;;;;;;;;4952978;29;20039;-50
2021/05/29 07:12:24;;;;;;;1.35;0.50;;;;;;;;;;4953482;29;20029;-47
2021/05/29 07:14:51;;;;;;;1.67;0.50;;;;;;;;;;4953402;29;20531;-44
2021/05/29 07:17:18;;;;;;;1.65;0.60;;;;;;;;;;4953415;29;20508;-48
2021/05/29 07:19:45;;;;;;;1.83;0.88;;;;;;;;;;4953217;29;20027;-47
2021/05/29 07:22:12;;;;;;;0.95;0.40;;;;;;;;;;4953312;29;20027;-47
2021/05/29 07:24:39;;;;;;;2.40;0.50;;;;;;;;;;4953460;29;20039;-44
2021/05/29 07:27:06;;;;;;;1.67;0.50;;;;;;;;;;4952785;29;20098;-52
2021/05/29 07:29:33;;;;;;;3.72;0.65;;;;;;;;;;4953434;29;20036;-45
2021/05/29 07:32:01;;;;;;;1.65;0.50;;;;;;;;;;4953489;28;20491;-47
2021/05/29 07:34:28;;;;;;;1.27;0.50;;;;;;;;;;4956660;29;20106;-43
2021/05/29 07:36:54;;;;;;;0.82;0.50;;;;;;;;;;4956137;29;20393;-47
2021/05/29 07:39:22;;;;;;;1.10;0.40;;;;;;;;;;4956522;29;20035;-45
2021/05/29 07:41:49;;;;;;;5.05;0.50;;;;;;;;;;4955802;29;20106;-59
2021/05/29 07:44:16;;;;;;;1.05;0.40;;;;;;;;;;4939364;29;20039;-57
2021/05/29 07:46:43;;;;;;;1.40;0.40;;;;;;;;;;4955369;29;20051;-43
2021/05/29 07:49:10;;;;;;;1.85;0.60;;;;;;;;;;4956215;29;20023;-50
2021/05/29 07:51:37;;;;;;;2.42;0.55;;;;;;;;;;4955812;29;20023;-55
2021/05/29 07:54:08;;;;;;;1.45;0.40;;;;;;;;;;4956124;29;20031;-59
2021/05/29 07:56:35;;;;;;;1.27;0.40;;;;;;;;;;4956126;29;20023;-58
2021/05/29 07:59:09;;;;;;;0.63;0.32;;;;;;;;;;4956083;29;20058;-59
2021/05/29 08:01:36;;;;;;;0.90;0.30;;;;;;;;;;4956606;29;20431;-57
2021/05/29 08:04:03;;;;;;;0.63;0.43;;;;;;;;;;4955671;29;20035;-55
2021/05/29 08:06:31;;;;;;;2.40;0.85;;;;;;;;;;4956414;29;20027;-53
2021/05/29 08:08:58;;;;;;;1.73;0.30;;;;;;;;;;4955803;29;20027;-58
2021/05/29 08:11:25;;;;;;;1.00;0.40;;;;;;;;;;4956318;29;20066;-59
2021/05/29 08:13:53;;;;;;;1.13;0.30;;;;;;;;;;4955411;29;20117;-60
2021/05/29 08:16:21;;;;;;;3.53;0.75;;;;;;;;;;4956013;29;20022;-59
2021/05/29 08:18:48;;;;;;;1.77;0.50;;;;;;;;;;4955403;29;20058;-56
2021/05/29 08:21:16;;;;;;;1.48;0.52;;;;;;;;;;4955556;29;20452;-57
2021/05/29 08:23:43;;;;;;;1.63;0.40;;;;;;;;;;4955419;29;20094;-58
2021/05/29 08:26:10;;;;;;;1.88;0.55;;;;;;;;;;4955408;29;20031;-59
2021/05/29 08:28:37;;;;;;;1.80;0.40;;;;;;;;;;4954141;28;20028;-58
2021/05/29 08:31:05;;;;;;;1.58;0.68;;;;;;;;;;4955675;29;20031;-55
2021/05/29 08:33:32;;;;;;;0.80;0.30;;;;;;;;;;4955396;29;20019;-56
2021/05/29 08:35:59;;;;;;;1.85;0.50;;;;;;;;;;4955229;29;20020;-59
2021/05/29 08:38:26;;;;;;;1.45;0.43;;;;;;;;;;4955620;29;20027;-59
2021/05/29 08:40:53;;;;;;;2.72;0.65;;;;;;;;;;4954913;29;20390;-58
2021/05/29 08:43:20;;;;;;;0.95;0.30;;;;;;;;;;4954883;28;20023;-59
2021/05/29 08:45:47;;;;;;;1.48;0.60;;;;;;;;;;4954849;29;20055;-58
2021/05/29 08:48:16;;;;;;;3.22;0.63;;;;;;;;;;4955344;29;20023;-60
2021/05/29 08:53:28;;;;;;;1.27;0.57;;;;;;;;;;4955383;29;20510;-59
2021/05/29 08:55:55;;;;;;;0.40;0.30;;;;;;;;;;4954722;29;20035;-59
2021/05/29 08:58:22;;;;;;;1.55;0.50;;;;;;;;;;4954947;29;20055;-42
2021/05/29 09:00:50;;;;;;;3.78;0.68;;;;;;;;;;4954674;29;20027;-44
2021/05/29 09:03:17;;;;;;;0.85;0.32;;;;;;;;;;4955115;29;20032;-45
2021/05/29 09:05:52;;;;;;;1.05;0.40;;;;;;;;;;4937461;29;20035;-45
2021/05/29 09:08:26;;;;;;;1.15;0.40;;;;;;;;;;4954798;29;20468;-44
2021/05/29 09:10:58;;;;;;;1.33;0.50;;;;;;;;;;4954189;29;20038;-46
2021/05/29 09:13:26;;;;;;;0.90;0.50;;;;;;;;;;4955064;29;20391;-52
2021/05/29 09:16:00;;;;;;;3.03;0.55;;;;;;;;;;4954400;29;20030;-43
2021/05/29 09:18:27;;;;;;;1.80;0.75;;;;;;;;;;4954421;29;20073;-42
2021/05/29 09:20:55;;;;;;;0.80;0.50;;;;;;;;;;4954204;29;20114;-48
2021/05/29 09:23:22;;;;;;;1.27;0.60;;;;;;;;;;4954897;29;20052;-49
2021/05/29 09:25:53;;;;;;;4.43;0.40;;;;;;;;;;4936939;29;20031;-43
2021/05/29 09:28:24;;;;;;;1.30;0.60;;;;;;;;;;4954691;29;20027;-43
2021/05/29 09:30:52;;;;;;;1.45;0.57;;;;;;;;;;4954615;29;20101;-44
2021/05/29 09:33:21;;;;;;;2.00;0.40;;;;;;;;;;4954762;29;20023;-58
2021/05/29 09:35:58;;;;;;;1.30;0.45;;;;;;;;;;4954582;29;20138;-51
2021/05/29 09:38:27;;;;;;;1.25;0.50;;;;;;;;;;4953829;29;20035;-54
2021/05/29 09:40:55;;;;;;;0.77;0.50;;;;;;;;;;4954384;29;20480;-56
2021/05/29 09:43:23;;;;;;;1.48;0.50;;;;;;;;;;4954071;29;20600;-59
2021/05/29 09:45:59;;;;;;;1.27;0.40;;;;;;;;;;4954183;29;20077;-57
2021/05/29 09:48:27;;;;;;;3.55;0.50;;;;;;;;;;4953856;29;20019;-56
2021/05/29 09:51:10;;;;;;;1.17;0.40;;;;;;;;;;4954586;29;20491;-58
2021/05/29 09:53:39;;;;;;;1.23;0.50;;;;;;;;;;4953968;28;20027;-59
2021/05/29 09:56:07;;;;;;;0.90;0.30;;;;;;;;;;4936417;29;20082;-55
2021/05/29 09:58:50;;;;;;;2.28;0.57;;;;;;;;;;4936411;29;20031;-58
2021/05/29 10:01:36;;;;;;;1.42;0.55;;;;;;;;;;4954108;29;20050;-58
2021/05/29 10:04:04;;;;;;;2.45;0.40;;;;;;;;;;4953605;29;20038;-52
2021/05/29 10:06:31;;;;;;;2.92;0.47;;;;;;;;;;4954534;29;20106;-56
2021/05/29 10:08:58;;;;;;;0.95;0.50;;;;;;;;;;4953562;29;20031;-56
2021/05/29 10:11:25;;;;;;;1.83;0.60;;;;;;;;;;4954101;29;20031;-58
2021/05/29 10:13:52;;;;;;;1.40;0.40;;;;;;;;;;4953595;29;20023;-48
2021/05/29 10:16:20;;;;;;;1.10;0.60;;;;;;;;;;4954128;29;20031;-55
2021/05/29 10:18:50;;;;;;;0.65;0.38;;;;;;;;;;4953570;29;20384;-53
2021/05/29 10:21:19;;;;;;;1.38;0.50;;;;;;;;;;4954064;29;20026;-55
2021/05/29 10:23:47;;;;;;;1.27;0.50;;;;;;;;;;4953668;29;20035;-47
2021/05/29 10:26:17;;;;;;;2.92;0.70;;;;;;;;;;4954126;28;20035;-53
2021/05/29 10:28:48;;;;;;;0.70;0.40;;;;;;;;;;4953558;29;20047;-52
2021/05/29 10:31:15;;;;;;;6.47;0.90;;;;;;;;;;4953885;29;20499;-53
2021/05/29 10:33:43;;;;;;;1.98;0.50;;;;;;;;;;4953323;29;20031;-49
2021/05/29 10:36:32;;;;;;;1.92;0.52;;;;;;;;;;4953781;29;20475;-48
2021/05/29 10:38:59;;;;;;;1.25;0.55;;;;;;;;;;4952839;28;20030;-51
2021/05/29 10:41:45;;;;;;;1.13;0.40;;;;;;;;;;4953669;29;20716;-50
2021/05/29 10:44:30;;;;;;;1.15;0.50;;;;;;;;;;4953132;28;20063;-51
2021/05/29 10:47:04;;;;;;;0.90;0.47;;;;;;;;;;4953669;29;20518;-48
2021/05/29 10:49:58;;;;;;;0.93;0.43;;;;;;;;;;4953324;29;20027;-50
2021/05/29 10:52:36;;;;;;;0.98;0.40;;;;;;;;;;4950956;29;20039;-50
2021/05/29 10:55:15;;;;;;;0.98;0.40;;;;;;;;;;4953191;29;20028;-46
2021/05/29 10:58:03;;;;;;;3.35;0.55;;;;;;;;;;4953291;29;20033;-47
2021/05/29 11:00:36;;;;;;;1.50;0.47;;;;;;;;;;4935946;29;20028;-51
2021/05/29 11:03:19;;;;;;;1.55;0.50;;;;;;;;;;4953277;29;20023;-55
2021/05/29 11:05:47;;;;;;;0.95;0.30;;;;;;;;;;4953363;28;20062;-51
2021/05/29 11:08:32;;;;;;;3.47;0.70;;;;;;;;;;4957284;29;20098;-52
2021/05/29 11:10:59;;;;;;;0.63;0.45;;;;;;;;;;4956758;29;20160;-55
2021/05/29 11:13:44;;;;;;;2.08;0.52;;;;;;;;;;4957193;29;20027;-50
2021/05/29 11:16:11;;;;;;;4.03;0.50;;;;;;;;;;4956770;29;20038;-49
2021/05/29 11:18:57;;;;;;;2.28;0.65;;;;;;;;;;4957121;29;20027;-53
2021/05/29 11:21:24;;;;;;;1.20;0.60;;;;;;;;;;4956204;29;20538;-52
2021/05/29 11:23:51;;;;;;;1.15;0.47;;;;;;;;;;4956782;29;20107;-49
2021/05/29 11:26:25;;;;;;;1.70;0.68;;;;;;;;;;4956576;29;20114;-61
2021/05/29 11:28:52;;;;;;;1.20;0.50;;;;;;;;;;4957184;29;20024;-61
2021/05/29 11:31:21;;;;;;;0.43;0.40;;;;;;;;;;4956233;29;20034;-61
2021/05/29 11:33:55;;;;;;;0.80;0.50;;;;;;;;;;4956662;29;20022;-54
2021/05/29 11:36:32;;;;;;;2.30;0.70;;;;;;;;;;4956547;29;20019;-60
2021/05/29 11:39:12;;;;;;;2.40;1.45;;;;;;;;;;4957090;29;20031;-60
2021/05/29 11:41:40;;;;;;;2.63;0.60;;;;;;;;;;4956077;29;20507;-59
2021/05/29 11:44:35;;;;;;;1.50;0.60;;;;;;;;;;4956397;29;20027;-59
2021/05/29 11:47:13;;;;;;;3.30;0.47;;;;;;;;;;4953812;29;20055;-60
2021/05/29 11:49:40;;;;;;;1.23;0.50;;;;;;;;;;4939183;29;20074;-55
2021/05/29 11:52:08;;;;;;;1.05;0.50;;;;;;;;;;4955877;29;20415;-60
2021/05/29 11:54:40;;;;;;;1.58;0.55;;;;;;;;;;4956556;29;20140;-60
2021/05/29 11:57:07;;;;;;;2.17;0.55;;;;;;;;;;4956021;29;20019;-59
2021/05/29 11:59:34;;;;;;;1.20;0.60;;;;;;;;;;4956405;29;20025;-45
2021/05/29 12:02:01;;;;;;;1.52;0.50;;;;;;;;;;4955697;29;20038;-45
2021/05/29 12:04:29;;;;;;;0.95;0.60;;;;;;;;;;4956133;29;20027;-43
2021/05/29 12:06:56;;;;;;;2.35;0.70;;;;;;;;;;4955781;29;20035;-43
2021/05/29 12:09:24;;;;;;;1.30;0.57;;;;;;;;;;4956231;29;20030;-46
2021/05/29 12:11:52;;;;;;;0.70;0.47;;;;;;;;;;4956002;29;20057;-51
2021/05/29 12:14:21;;;;;;;2.22;0.55;;;;;;;;;;4955739;29;20038;-58
2021/05/29 12:17:01;;;;;;;2.85;0.73;;;;;;;;;;4938790;28;20081;-59
2021/05/29 12:19:34;;;;;;;1.33;0.63;;;;;;;;;;4955276;29;20030;-57
2021/05/29 12:22:09;;;;;;;2.40;0.50;;;;;;;;;;4955875;29;20054;-59
2021/05/29 12:24:41;;;;;;;1.02;0.47;;;;;;;;;;4955334;29;20035;-58
2021/05/29 12:27:10;;;;;;;1.70;0.70;;;;;;;;;;4955868;29;20479;-60
2021/05/29 12:29:38;;;;;;;1.52;0.40;;;;;;;;;;4938146;29;20073;-46
2021/05/29 12:32:06;;;;;;;1.40;0.40;;;;;;;;;;4955627;29;20495;-61
2021/05/29 12:34:33;;;;;;;1.10;0.50;;;;;;;;;;4955238;29;20032;-56
2021/05/29 12:37:02;;;;;;;1.15;0.60;;;;;;;;;;4955465;29;20487;-59
2021/05/29 12:39:47;;;;;;;0.80;0.47;;;;;;;;;;4955393;29;20114;-58
2021/05/29 12:42:20;;;;;;;0.77;0.40;;;;;;;;;;4955532;29;20534;-53
2021/05/29 12:44:48;;;;;;;1.17;0.60;;;;;;;;;;4937870;29;20447;-59
2021/05/29 12:47:19;;;;;;;0.75;0.43;;;;;;;;;;4955250;29;20035;-60
2021/05/29 12:49:46;;;;;;;2.25;0.65;;;;;;;;;;4954978;29;20054;-46
2021/05/29 12:52:25;;;;;;;2.58;0.70;;;;;;;;;;4955418;29;20028;-59
2021/05/29 12:54:52;;;;;;;1.08;0.60;;;;;;;;;;4955002;29;20027;-45
2021/05/29 12:57:20;;;;;;;1.98;0.70;;;;;;;;;;4955321;29;20082;-44
2021/05/29 12:59:48;;;;;;;1.02;0.60;;;;;;;;;;4954674;29;20216;-43
2021/05/29 13:07:58;;;;;;;1.50;0.70;;;;;;;;;;4948937;29;20051;-43
2021/05/29 13:10:38;;;;;;;1.40;0.70;;;;;;;;;;4942128;28;20027;-43
2021/05/29 13:13:07;;;;;;;1.42;0.50;;;;;;;;;;4944072;29;20058;-43
2021/05/29 13:15:35;;;;;;;1.63;0.50;;;;;;;;;;4944585;29;20019;-45
2021/05/29 13:18:12;;;;;;;1.63;0.52;;;;;;;;;;4941889;29;20644;-44
2021/05/29 13:20:40;;;;;;;4.93;0.70;;;;;;;;;;4937621;29;20028;-48
2021/05/29 13:23:09;;;;;;;1.45;0.52;;;;;;;;;;4937814;29;20043;-42
2021/05/29 13:25:40;;;;;;;1.40;0.60;;;;;;;;;;4935964;29;20035;-43
2021/05/29 13:28:09;;;;;;;100.15;5.43;;;;;;;;;;4945025;29;20527;-44
2021/05/29 13:30:36;;;;;;;93.75;5.03;;;;;;;;;;4945562;29;20035;-43
2021/05/29 13:33:05;;;;;;;20.20;1.42;;;;;;;;;;4942663;29;20019;-44
2021/05/29 13:35:32;;;;;;;13.57;2.20;;;;;;;;;;4950328;29;20106;-41
2021/05/29 13:37:59;;;;;;;16.35;1.60;;;;;;;;;;4950290;28;20038;-43
2021/05/29 13:40:27;;;;;;;24.35;2.00;;;;;;;;;;4943122;29;20024;-42
2021/05/29 13:42:54;;;;;;;12.45;1.77;;;;;;;;;;4944672;29;20105;-41
2021/05/29 13:45:26;;;;;;;35.08;3.00;;;;;;;;;;4946102;29;20027;-44
2021/05/29 13:47:53;;;;;;;15.70;4.77;;;;;;;;;;4932028;29;20435;-45
2021/05/29 13:50:20;;;;;;;25.58;2.55;;;;;;;;;;4947643;29;20278;-44
2021/05/29 13:52:48;;;;;;;10.90;1.85;;;;;;;;;;4951233;28;20046;-43
2021/05/29 13:55:15;;;;;;;10.15;2.67;;;;;;;;;;4937503;29;20547;-46
2021/05/29 13:57:42;;;;;;;12.63;3.08;;;;;;;;;;4936497;29;20023;-43
2021/05/29 14:00:12;;;;;;;8.10;3.30;;;;;;;;;;4924883;29;20054;-44
2021/05/29 14:02:40;;;;;;;11.60;2.80;;;;;;;;;;4942961;29;20027;-44
2021/05/29 14:05:08;;;;;;;9.38;3.17;;;;;;;;;;4947834;29;20439;-44
2021/05/29 14:07:36;;;;;;;10.05;2.65;;;;;;;;;;4950098;28;20170;-43
2021/05/29 14:10:04;;;;;;;9.45;3.03;;;;;;;;;;4940934;29;20015;-43
2021/05/29 14:12:31;;;;;;;9.98;3.33;;;;;;;;;;4946877;29;20041;-43
2021/05/29 14:14:58;;;;;;;12.32;2.88;;;;;;;;;;4943520;29;20046;-45
2021/05/29 14:17:25;;;;;;;7.05;2.45;;;;;;;;;;4939140;29;20027;-44
2021/05/29 14:19:53;;;;;;;7.80;2.30;;;;;;;;;;4940014;29;20035;-44
2021/05/29 14:22:20;;;;;;;7.55;2.50;;;;;;;;;;4942944;29;20038;-45
2021/05/29 14:24:47;;;;;;;5.95;2.17;;;;;;;;;;4947420;29;20518;-44
2021/05/29 14:27:14;;;;;;;5.22;2.10;;;;;;;;;;4951374;28;20119;-45
2021/05/29 14:29:42;;;;;;;7.25;2.30;;;;;;;;;;4946313;29;20082;-46
2021/05/29 14:32:09;;;;;;;9.00;2.03;;;;;;;;;;4937295;28;20388;-45
2021/05/29 14:34:36;;;;;;;14.38;2.63;;;;;;;;;;4930465;29;20038;-45
2021/05/29 14:37:03;;;;;;;9.77;2.33;;;;;;;;;;4939320;29;20050;-44
2021/05/29 14:39:30;;;;;;;7.35;2.30;;;;;;;;;;4945569;29;20019;-44
2021/05/29 14:41:58;;;;;;;11.75;2.90;;;;;;;;;;4946781;28;20024;-44
2021/05/29 14:44:25;;;;;;;5.05;1.95;;;;;;;;;;4943960;28;20122;-43
2021/05/29 14:46:52;;;;;;;3.72;1.33;;;;;;;;;;4948279;28;20047;-44
2021/05/29 14:49:21;;;;;;;5.10;2.20;;;;;;;;;;4950705;29;20028;-45
2021/05/29 14:51:49;;;;;;;10.25;2.00;;;;;;;;;;4940715;29;20460;-44
2021/05/29 14:54:16;;;;;;;7.78;2.45;;;;;;;;;;4956939;29;20078;-43
2021/05/29 14:56:43;;;;;;;7.07;1.65;;;;;;;;;;4957054;29;20066;-43
2021/05/29 14:59:10;;;;;;;8.43;2.17;;;;;;;;;;4957207;29;20054;-44
2021/05/29 15:01:40;;;;;;;5.65;1.73;;;;;;;;;;4956839;29;20027;-44
2021/05/29 15:04:07;;;;;;;2.55;1.15;;;;;;;;;;4957165;29;20471;-43
2021/05/29 15:06:39;;;;;;;8.45;1.35;;;;;;;;;;4956374;28;20526;-45
2021/05/29 15:09:07;;;;;;;8.30;1.40;;;;;;;;;;4956951;29;20023;-47